Time;durP1;ratioP1;P1;durP2;ratioP2;P2;SDS_P1;SDS_P2;PMS_P1;PMS_P2;Temp;Humidity;BMP_temperature;BMP_pressure;BME280_temperature;BME280_humidity;BME280_pressure;Samples;Min_cycle;Max_cycle;Signal;HPM_P1;HPM_P2
2022/11/27 00:00:31;;;;;;;33.25;12.70;;;5.70;99.90;;;;;;5036265;28;20046;-72
2022/11/27 00:02:56;;;;;;;39.67;13.48;;;5.70;99.90;;;;;;5036279;28;20052;-72
2022/11/27 00:05:22;;;;;;;36.85;13.43;;;5.70;99.90;;;;;;5036629;28;20053;-72
2022/11/27 00:07:47;;;;;;;36.80;13.10;;;5.70;99.90;;;;;;5036469;28;20063;-73
2022/11/27 00:10:13;;;;;;;36.85;13.77;;;5.70;99.90;;;;;;5031857;28;20038;-72
2022/11/27 00:12:38;;;;;;;30.35;12.43;;;5.70;99.90;;;;;;5016280;28;20403;-73
2022/11/27 00:15:04;;;;;;;31.60;12.23;;;5.70;99.90;;;;;;5016333;28;20054;-72
2022/11/27 00:17:30;;;;;;;34.05;13.00;;;5.70;99.90;;;;;;5016251;28;20056;-72
2022/11/27 00:19:55;;;;;;;34.67;13.48;;;5.70;99.90;;;;;;5016847;28;20092;-73
2022/11/27 00:22:21;;;;;;;32.83;12.05;;;5.70;99.90;;;;;;5016347;28;20065;-73
2022/11/27 00:24:46;;;;;;;30.10;12.68;;;5.70;99.90;;;;;;5015824;28;20042;-73
2022/11/27 00:27:12;;;;;;;29.48;12.75;;;5.70;99.90;;;;;;5016499;28;20132;-73
2022/11/27 00:29:38;;;;;;;32.13;11.98;;;5.70;99.90;;;;;;5016014;28;20054;-73
2022/11/27 00:32:06;;;;;;;32.78;13.35;;;5.70;99.90;;;;;;5016261;28;20050;-72
2022/11/27 00:34:32;;;;;;;32.42;11.82;;;5.70;99.90;;;;;;5018855;28;20132;-72
2022/11/27 00:36:58;;;;;;;31.35;12.25;;;5.60;99.90;;;;;;5035940;28;20077;-73
2022/11/27 00:39:24;;;;;;;36.53;13.13;;;5.60;99.90;;;;;;5034271;28;20453;-72
2022/11/27 00:41:49;;;;;;;28.65;12.80;;;5.60;99.90;;;;;;5015845;28;20192;-72
2022/11/27 00:44:15;;;;;;;35.92;13.88;;;5.60;99.90;;;;;;5016236;28;20033;-73
2022/11/27 00:46:41;;;;;;;29.55;12.68;;;5.60;99.90;;;;;;5015805;28;20129;-73
2022/11/27 00:49:14;;;;;;;35.00;12.75;;;5.60;99.90;;;;;;5016137;28;20125;-72
2022/11/27 00:51:40;;;;;;;35.88;12.95;;;5.60;99.90;;;;;;5015688;28;20493;-72
2022/11/27 00:54:06;;;;;;;34.17;13.15;;;5.50;99.90;;;;;;5015390;28;20045;-74
2022/11/27 00:56:35;;;;;;;32.65;12.40;;;5.50;99.90;;;;;;5018714;28;20141;-74
2022/11/27 00:59:01;;;;;;;28.48;12.60;;;5.50;99.90;;;;;;5015606;28;20038;-73
2022/11/27 01:01:30;;;;;;;32.63;13.00;;;5.50;99.90;;;;;;5035033;28;20037;-72
2022/11/27 01:03:57;;;;;;;25.88;11.88;;;5.40;99.90;;;;;;5035454;28;20125;-72
2022/11/27 01:06:23;;;;;;;31.05;12.65;;;5.40;99.90;;;;;;5035598;28;20053;-73
2022/11/27 01:08:49;;;;;;;29.13;13.63;;;5.70;99.90;;;;;;5035193;28;20099;-72
2022/11/27 01:11:18;;;;;;;29.48;12.60;;;5.30;99.90;;;;;;5018640;28;20045;-72
2022/11/27 01:13:44;;;;;;;32.67;12.88;;;5.30;99.90;;;;;;5016028;28;20045;-72
2022/11/27 01:16:15;;;;;;;36.20;12.48;;;5.30;99.90;;;;;;5015496;28;20050;-73
2022/11/27 01:18:43;;;;;;;31.83;13.00;;;5.40;99.90;;;;;;5016021;28;20045;-73
2022/11/27 01:21:09;;;;;;;25.80;11.90;;;5.30;99.90;;;;;;5015177;28;20088;-73
2022/11/27 01:23:35;;;;;;;30.48;12.57;;;5.30;99.90;;;;;;5015640;28;20155;-73
2022/11/27 01:26:03;;;;;;;30.00;12.05;;;5.20;99.90;;;;;;5014714;28;20471;-73
2022/11/27 01:28:29;;;;;;;27.02;11.80;;;5.20;99.90;;;;;;5015046;28;20037;-73
2022/11/27 01:30:54;;;;;;;29.25;12.23;;;5.20;99.90;;;;;;5015419;28;20054;-73
2022/11/27 01:33:20;;;;;;;25.20;12.05;;;5.20;99.90;;;;;;5015193;28;20061;-74
2022/11/27 01:36:00;;;;;;;23.35;10.85;;;5.20;99.90;;;;;;5015225;28;20052;-72
2022/11/27 01:38:26;;;;;;;28.45;12.15;;;5.30;99.90;;;;;;5015008;28;20041;-73
2022/11/27 01:41:00;;;;;;;29.60;12.13;;;5.20;99.90;;;;;;5014839;28;20038;-74
2022/11/27 01:43:38;;;;;;;;;;;5.20;99.90;;;;;;5015786;28;20052;-72
2022/11/27 01:46:11;;;;;;;31.35;12.30;;;5.20;99.90;;;;;;5034211;28;19921;-73
2022/11/27 01:48:37;;;;;;;32.20;11.57;;;5.10;99.90;;;;;;5034767;28;20052;-73
2022/11/27 01:51:02;;;;;;;26.95;11.45;;;5.20;99.90;;;;;;5035040;28;20128;-72
2022/11/27 01:53:28;;;;;;;31.60;11.50;;;5.10;99.90;;;;;;5035131;28;20050;-72
2022/11/27 01:55:59;;;;;;;32.03;12.20;;;5.10;99.90;;;;;;5034129;28;20104;-73
2022/11/27 01:58:27;;;;;;;26.80;11.07;;;5.10;99.90;;;;;;5034839;28;20132;-73
2022/11/27 02:00:53;;;;;;;28.35;11.65;;;5.10;99.90;;;;;;5034652;28;20047;-73
2022/11/27 02:03:19;;;;;;;34.35;11.55;;;5.10;99.90;;;;;;5034546;28;20409;-72
2022/11/27 02:05:45;;;;;;;27.05;10.98;;;5.10;99.90;;;;;;5017961;28;20053;-73
2022/11/27 02:08:14;;;;;;;36.75;11.98;;;5.10;99.90;;;;;;5035228;28;20046;-72
2022/11/27 02:10:46;;;;;;;28.77;11.45;;;5.10;99.90;;;;;;5018800;28;20362;-72
2022/11/27 02:13:32;;;;;;;24.35;11.15;;;5.10;99.90;;;;;;4998333;28;20042;-73
2022/11/27 02:16:15;;;;;;;30.67;11.65;;;5.10;99.90;;;;;;5018545;28;20046;-72
2022/11/27 02:19:12;;;;;;;32.75;11.85;;;5.00;99.90;;;;;;5018783;28;20108;-73
2022/11/27 02:21:43;;;;;;;29.45;11.40;;;5.00;99.90;;;;;;5018332;28;20132;-74
2022/11/27 02:24:38;;;;;;;26.92;11.02;;;5.00;99.90;;;;;;5018863;28;20046;-74
2022/11/27 02:27:36;;;;;;;29.77;11.20;;;5.10;99.90;;;;;;5005384;28;20159;-73
2022/11/27 02:30:04;;;;;;;26.90;11.52;;;5.10;99.90;;;;;;5018468;28;20365;-73
2022/11/27 02:32:46;;;;;;;32.63;12.85;;;5.20;99.90;;;;;;5018317;28;20469;-73
2022/11/27 02:35:30;;;;;;;26.70;12.43;;;5.20;99.90;;;;;;5018592;28;20362;-72
2022/11/27 02:38:00;;;;;;;27.08;12.35;;;5.20;99.90;;;;;;5017858;28;20343;-73
2022/11/27 02:40:30;;;;;;;25.25;11.02;;;5.20;99.90;;;;;;5017792;28;20054;-72
2022/11/27 02:43:05;;;;;;;31.05;11.02;;;5.20;99.90;;;;;;5018414;28;20057;-74
2022/11/27 02:45:41;;;;;;;22.33;11.27;;;5.20;99.90;;;;;;5018059;28;20069;-73
2022/11/27 02:48:09;;;;;;;24.23;10.27;;;5.20;99.90;;;;;;5037764;28;20045;-73
2022/11/27 02:50:37;;;;;;;23.58;11.25;;;5.30;99.90;;;;;;5026168;28;20049;-73
2022/11/27 02:53:08;;;;;;;23.48;11.02;;;5.20;99.90;;;;;;5017907;28;20119;-73
2022/11/27 02:55:37;;;;;;;24.60;11.27;;;5.20;99.90;;;;;;5017823;28;20125;-73
2022/11/27 02:58:08;;;;;;;26.55;11.60;;;5.30;99.90;;;;;;5020147;28;20124;-73
2022/11/27 03:00:36;;;;;;;27.88;11.20;;;5.30;99.90;;;;;;5037810;28;20037;-72
2022/11/27 03:03:06;;;;;;;22.88;10.73;;;5.40;99.90;;;;;;5022306;28;20116;-73
2022/11/27 03:05:38;;;;;;;26.75;11.52;;;5.40;99.90;;;;;;5017893;28;20332;-73
2022/11/27 03:08:08;;;;;;;23.70;10.13;;;5.50;99.90;;;;;;5017558;28;20042;-73
2022/11/27 03:10:45;;;;;;;20.88;9.82;;;5.60;99.90;;;;;;5017374;28;20446;-73
2022/11/27 03:13:10;;;;;;;23.17;10.13;;;5.60;99.90;;;;;;5017749;28;20046;-73
2022/11/27 03:16:04;;;;;;;26.85;10.07;;;5.80;99.90;;;;;;5000897;28;20046;-73
2022/11/27 03:18:46;;;;;;;27.40;11.17;;;5.60;99.90;;;;;;5017322;28;20054;-73
2022/11/27 03:21:29;;;;;;;23.65;9.85;;;5.60;99.90;;;;;;5017400;28;20344;-73
2022/11/27 03:23:56;;;;;;;24.00;11.32;;;5.60;99.90;;;;;;5018130;28;20050;-73
2022/11/27 03:26:22;;;;;;;22.40;9.70;;;5.60;99.90;;;;;;5017540;28;20050;-73
2022/11/27 03:28:49;;;;;;;23.33;11.32;;;5.60;99.90;;;;;;4999809;28;20050;-72
2022/11/27 03:31:15;;;;;;;22.85;9.90;;;5.70;99.90;;;;;;5016791;28;20049;-73
2022/11/27 03:33:41;;;;;;;20.00;10.00;;;5.60;99.90;;;;;;5017327;28;20406;-72
2022/11/27 03:36:12;;;;;;;21.40;9.90;;;5.60;99.90;;;;;;5017274;28;20088;-73
2022/11/27 03:38:37;;;;;;;21.27;9.50;;;5.70;99.90;;;;;;5017396;28;20041;-73
2022/11/27 03:41:13;;;;;;;24.38;10.68;;;5.60;99.90;;;;;;5017136;28;20053;-73
2022/11/27 03:43:55;;;;;;;20.27;9.73;;;5.60;99.90;;;;;;5017289;28;20068;-73
2022/11/27 03:46:30;;;;;;;23.30;10.43;;;5.60;99.90;;;;;;5016652;28;20126;-72
2022/11/27 03:49:27;;;;;;;21.52;9.95;;;5.60;99.90;;;;;;5017049;28;20450;-73
2022/11/27 03:52:21;;;;;;;22.35;10.15;;;5.60;99.90;;;;;;5019575;28;20046;-72
2022/11/27 03:54:52;;;;;;;;;;;5.60;99.90;;;;;;5036185;28;20049;-73
2022/11/27 03:57:23;;;;;;;25.48;9.63;;;5.60;99.90;;;;;;5036334;28;19921;-73
2022/11/27 03:59:53;;;;;;;22.70;9.40;;;5.60;99.90;;;;;;5036753;28;20041;-72
2022/11/27 04:02:30;;;;;;;23.35;9.98;;;5.60;99.90;;;;;;5019105;28;20085;-72
2022/11/27 04:04:56;;;;;;;19.75;9.45;;;5.60;99.90;;;;;;5017196;28;20072;-73
2022/11/27 04:07:21;;;;;;;21.58;10.07;;;5.50;99.90;;;;;;5016836;28;20517;-72
2022/11/27 04:09:47;;;;;;;21.88;10.23;;;5.80;99.90;;;;;;5016550;28;20038;-73
2022/11/27 04:12:12;;;;;;;20.38;10.02;;;5.50;99.90;;;;;;5016401;28;20049;-74
2022/11/27 04:14:38;;;;;;;22.13;9.65;;;5.50;99.90;;;;;;5016732;28;20077;-73
2022/11/27 04:17:04;;;;;;;27.75;10.45;;;5.50;99.90;;;;;;5016117;28;20050;-73
2022/11/27 04:19:29;;;;;;;20.65;9.73;;;5.50;99.90;;;;;;5016242;28;20581;-73
2022/11/27 04:21:55;;;;;;;22.02;9.57;;;5.50;99.90;;;;;;5031472;28;20076;-73
2022/11/27 04:24:20;;;;;;;19.92;9.70;;;5.50;99.90;;;;;;5019111;28;20115;-73
2022/11/27 04:26:46;;;;;;;24.20;10.50;;;5.50;99.90;;;;;;5036712;28;20041;-72
2022/11/27 04:29:11;;;;;;;25.00;10.25;;;5.50;99.90;;;;;;5035739;28;20492;-73
2022/11/27 04:31:37;;;;;;;23.40;9.80;;;5.50;99.90;;;;;;5019974;28;20351;-74
2022/11/27 04:34:02;;;;;;;22.17;9.88;;;5.40;99.90;;;;;;5035790;28;20045;-73
2022/11/27 04:36:28;;;;;;;19.08;9.43;;;5.40;99.90;;;;;;5035445;28;20045;-73
2022/11/27 04:38:53;;;;;;;20.60;9.27;;;5.40;99.90;;;;;;5024505;28;20049;-73
2022/11/27 04:41:19;;;;;;;23.25;9.48;;;5.50;99.90;;;;;;5016208;28;20057;-72
2022/11/27 04:43:44;;;;;;;19.13;9.23;;;5.40;99.90;;;;;;5017357;28;20139;-73
2022/11/27 04:46:10;;;;;;;24.75;9.65;;;5.40;99.90;;;;;;5036037;28;20159;-73
2022/11/27 04:48:36;;;;;;;20.65;9.40;;;5.40;99.90;;;;;;5035602;28;20037;-72
2022/11/27 04:51:01;;;;;;;24.02;8.90;;;5.40;99.90;;;;;;5035703;28;20099;-73
2022/11/27 04:53:27;;;;;;;21.15;8.38;;;5.40;99.90;;;;;;5025862;28;20133;-73
2022/11/27 04:55:52;;;;;;;19.63;8.80;;;5.40;99.90;;;;;;5035138;28;20049;-73
2022/11/27 04:58:18;;;;;;;22.02;8.50;;;5.30;99.90;;;;;;5035271;28;20061;-73
2022/11/27 05:00:43;;;;;;;21.92;8.93;;;5.40;99.90;;;;;;5035332;28;20449;-74
2022/11/27 05:03:09;;;;;;;20.23;8.88;;;5.40;99.90;;;;;;5035391;28;20068;-73
2022/11/27 05:05:35;;;;;;;17.75;9.25;;;5.40;99.90;;;;;;5035545;28;20044;-72
2022/11/27 05:08:00;;;;;;;21.58;10.15;;;5.40;99.90;;;;;;5027303;28;20501;-72
2022/11/27 05:10:26;;;;;;;20.00;8.35;;;5.40;99.90;;;;;;5015496;28;20048;-74
2022/11/27 05:12:51;;;;;;;16.45;8.38;;;5.40;99.90;;;;;;5015664;28;20049;-72
2022/11/27 05:15:17;;;;;;;16.83;8.93;;;5.30;99.90;;;;;;5015375;28;20041;-72
2022/11/27 05:17:43;;;;;;;25.85;9.90;;;5.30;99.90;;;;;;5015350;28;20048;-72
2022/11/27 05:20:09;;;;;;;20.55;8.90;;;5.30;99.90;;;;;;5015314;28;20151;-73
2022/11/27 05:22:34;;;;;;;22.33;9.55;;;5.30;99.90;;;;;;5014972;28;20049;-73
2022/11/27 05:25:00;;;;;;;23.90;9.00;;;5.30;99.90;;;;;;5015333;28;20049;-73
2022/11/27 05:27:26;;;;;;;20.33;9.02;;;5.30;99.90;;;;;;5015586;28;20045;-73
2022/11/27 05:29:51;;;;;;;20.77;9.07;;;5.30;99.90;;;;;;5015175;28;20054;-73
2022/11/27 05:32:17;;;;;;;21.77;9.20;;;5.30;99.90;;;;;;4997635;28;20050;-73
2022/11/27 05:34:42;;;;;;;24.50;8.98;;;5.20;99.90;;;;;;5015195;28;20042;-73
2022/11/27 05:37:08;;;;;;;18.23;8.80;;;5.20;99.90;;;;;;5015094;28;20073;-73
2022/11/27 05:39:34;;;;;;;22.15;9.30;;;5.20;99.90;;;;;;5035206;28;20045;-73
2022/11/27 05:41:59;;;;;;;22.20;8.32;;;5.20;99.90;;;;;;5017810;28;20132;-74
2022/11/27 05:44:25;;;;;;;22.55;8.65;;;5.20;99.90;;;;;;5034834;28;20050;-73
2022/11/27 05:46:51;;;;;;;22.60;7.80;;;5.20;99.90;;;;;;5034777;28;20042;-74
2022/11/27 05:49:17;;;;;;;16.02;7.63;;;5.20;99.90;;;;;;5038160;28;20057;-73
2022/11/27 05:51:42;;;;;;;16.38;7.72;;;5.20;99.90;;;;;;5035483;28;20053;-73
2022/11/27 05:54:08;;;;;;;19.42;7.78;;;5.20;99.90;;;;;;5015662;28;20053;-73
2022/11/27 05:56:34;;;;;;;18.73;7.57;;;5.20;99.90;;;;;;5019600;28;20057;-73
2022/11/27 05:59:00;;;;;;;18.40;8.23;;;5.20;99.90;;;;;;5038906;28;20050;-73
2022/11/27 06:01:26;;;;;;;18.23;7.80;;;5.20;99.90;;;;;;5021580;28;20045;-73
2022/11/27 06:03:51;;;;;;;17.60;7.82;;;5.20;99.90;;;;;;5019182;28;20401;-74
2022/11/27 06:06:18;;;;;;;22.83;8.27;;;5.20;99.90;;;;;;5001502;28;20077;-73
2022/11/27 06:08:45;;;;;;;19.42;8.02;;;5.20;99.90;;;;;;5018907;28;20042;-73
2022/11/27 06:11:13;;;;;;;16.08;7.53;;;5.20;99.90;;;;;;5018640;28;20370;-74
2022/11/27 06:13:40;;;;;;;14.30;6.78;;;5.40;99.90;;;;;;5021650;28;20037;-72
2022/11/27 06:16:09;;;;;;;22.52;7.93;;;5.20;99.90;;;;;;5016181;28;20038;-73
2022/11/27 06:18:35;;;;;;;20.10;7.45;;;5.30;99.90;;;;;;5004245;28;20053;-73
2022/11/27 06:21:08;;;;;;;22.02;7.60;;;5.30;99.90;;;;;;5017875;28;20425;-74
2022/11/27 06:23:35;;;;;;;16.90;7.05;;;5.30;99.90;;;;;;5016300;28;20425;-74
2022/11/27 06:26:26;;;;;;;16.80;6.63;;;5.30;99.90;;;;;;5018040;28;20045;-72
2022/11/27 06:28:53;;;;;;;22.58;7.95;;;5.30;99.90;;;;;;5001261;28;20046;-72
2022/11/27 06:31:21;;;;;;;20.08;8.40;;;5.30;99.90;;;;;;5017018;28;20053;-72
2022/11/27 06:33:49;;;;;;;24.13;7.93;;;5.30;99.90;;;;;;5017812;28;20100;-73
2022/11/27 06:36:16;;;;;;;20.42;7.55;;;5.30;99.90;;;;;;5017996;28;20081;-73
2022/11/27 06:38:42;;;;;;;21.55;7.45;;;5.30;99.90;;;;;;5017332;28;20045;-73
2022/11/27 06:41:21;;;;;;;17.25;7.45;;;5.20;99.90;;;;;;5018497;28;20061;-71
2022/11/27 06:43:47;;;;;;;16.98;7.22;;;5.30;99.90;;;;;;4984271;28;20116;-73
2022/11/27 06:46:16;;;;;;;14.35;6.68;;;5.20;99.90;;;;;;5006731;28;20046;-73
2022/11/27 06:48:43;;;;;;;16.58;7.15;;;5.30;99.90;;;;;;4981825;28;20470;-72
2022/11/27 06:51:12;;;;;;;16.83;7.18;;;5.30;99.90;;;;;;5009650;28;20049;-72
2022/11/27 06:53:38;;;;;;;18.02;7.45;;;5.30;99.90;;;;;;5021287;28;20093;-72
2022/11/27 06:56:05;;;;;;;15.77;7.45;;;5.30;99.90;;;;;;5017743;28;20378;-72
2022/11/27 06:58:31;;;;;;;18.40;7.63;;;5.30;99.90;;;;;;5015939;28;20034;-73
2022/11/27 07:00:58;;;;;;;16.33;6.75;;;5.60;99.90;;;;;;5013685;28;20107;-73
2022/11/27 07:03:24;;;;;;;18.00;6.65;;;5.30;99.90;;;;;;5009043;28;20466;-74
2022/11/27 07:05:50;;;;;;;17.95;6.85;;;5.30;99.90;;;;;;5017289;28;20046;-73
2022/11/27 07:08:15;;;;;;;14.90;7.53;;;5.30;99.90;;;;;;5017386;28;20093;-73
2022/11/27 07:10:41;;;;;;;17.52;7.70;;;5.30;99.90;;;;;;5030140;28;20101;-75
2022/11/27 07:13:06;;;;;;;12.23;6.70;;;5.30;99.90;;;;;;5017313;28;20049;-74
2022/11/27 07:15:32;;;;;;;14.35;7.40;;;5.30;99.90;;;;;;5017802;28;20056;-74
2022/11/27 07:17:58;;;;;;;14.52;6.85;;;5.30;99.90;;;;;;5017288;28;20050;-73
2022/11/27 07:20:23;;;;;;;20.42;7.40;;;5.30;99.90;;;;;;4999726;28;20529;-74
2022/11/27 07:22:49;;;;;;;18.83;6.93;;;5.40;99.90;;;;;;5017035;28;20046;-74
2022/11/27 07:25:15;;;;;;;17.30;7.97;;;5.30;99.90;;;;;;4999909;28;20450;-75
2022/11/27 07:27:41;;;;;;;14.70;6.80;;;5.40;99.90;;;;;;5016780;28;20042;-74
2022/11/27 07:30:07;;;;;;;15.93;7.78;;;5.40;99.90;;;;;;5016967;28;20037;-76
2022/11/27 07:32:32;;;;;;;16.55;7.32;;;5.40;99.90;;;;;;5016646;28;20054;-76
2022/11/27 07:34:58;;;;;;;15.55;7.50;;;5.40;99.90;;;;;;5036643;28;20128;-74
2022/11/27 07:37:23;;;;;;;14.68;7.03;;;5.40;99.90;;;;;;5036642;28;20037;-75
2022/11/27 07:39:49;;;;;;;15.85;8.80;;;5.50;99.90;;;;;;5036673;28;20041;-74
2022/11/27 07:42:15;;;;;;;15.90;7.10;;;5.50;99.90;;;;;;5019371;28;20056;-75
2022/11/27 07:44:40;;;;;;;17.85;7.82;;;5.80;99.90;;;;;;5022084;28;20054;-74
2022/11/27 07:47:06;;;;;;;14.85;6.65;;;5.50;99.90;;;;;;5016777;28;20077;-75
2022/11/27 07:49:31;;;;;;;18.42;7.88;;;5.50;99.90;;;;;;5016833;28;20053;-75
2022/11/27 07:51:57;;;;;;;17.27;7.45;;;5.50;99.90;;;;;;5015879;28;20096;-75
2022/11/27 07:54:22;;;;;;;15.35;7.18;;;5.60;99.90;;;;;;5016624;28;20501;-74
2022/11/27 07:56:48;;;;;;;14.70;7.18;;;5.60;99.90;;;;;;5036278;28;20370;-75
2022/11/27 07:59:13;;;;;;;16.95;7.93;;;5.60;99.90;;;;;;5023643;28;20058;-74
2022/11/27 08:01:39;;;;;;;13.23;7.35;;;5.60;99.90;;;;;;5016540;28;20049;-74
2022/11/27 08:04:04;;;;;;;16.45;7.80;;;5.60;99.90;;;;;;5016822;28;20124;-74
2022/11/27 08:06:30;;;;;;;15.07;7.80;;;5.60;99.90;;;;;;5016256;28;20137;-75
2022/11/27 08:08:56;;;;;;;16.88;7.65;;;5.70;99.90;;;;;;5016510;28;20042;-75
2022/11/27 08:11:28;;;;;;;17.55;7.72;;;5.70;99.90;;;;;;5015484;28;20038;-75
2022/11/27 08:13:56;;;;;;;13.13;7.07;;;5.70;99.90;;;;;;5002544;28;20412;-75
2022/11/27 08:16:22;;;;;;;13.35;7.60;;;5.80;99.90;;;;;;5036300;28;20049;-75
2022/11/27 08:18:48;;;;;;;15.38;7.90;;;5.80;99.90;;;;;;5036644;28;20056;-75
2022/11/27 08:21:13;;;;;;;15.68;8.32;;;5.80;99.90;;;;;;5035479;28;20159;-75
2022/11/27 08:23:39;;;;;;;16.50;8.05;;;5.90;99.90;;;;;;5002069;28;20068;-74
2022/11/27 08:26:09;;;;;;;20.10;8.90;;;5.90;99.90;;;;;;5035804;28;20037;-75
2022/11/27 08:28:35;;;;;;;17.30;8.18;;;6.00;99.90;;;;;;5035886;28;20361;-76
2022/11/27 08:31:03;;;;;;;15.63;7.95;;;6.00;99.90;;;;;;5035778;28;20434;-74
2022/11/27 08:33:29;;;;;;;14.35;7.65;;;6.00;99.90;;;;;;5035697;28;20111;-75
2022/11/27 08:35:54;;;;;;;18.63;8.23;;;6.00;99.90;;;;;;5033492;28;20049;-74
2022/11/27 08:38:20;;;;;;;18.92;8.80;;;6.00;99.90;;;;;;5035498;28;20369;-75
2022/11/27 08:40:57;;;;;;;12.35;7.53;;;6.00;99.90;;;;;;5036410;28;20045;-74
2022/11/27 08:43:24;;;;;;;17.55;8.70;;;6.00;99.90;;;;;;5035539;28;20081;-76
2022/11/27 08:45:50;;;;;;;15.05;8.45;;;6.10;99.90;;;;;;5035927;28;20111;-75
2022/11/27 08:48:16;;;;;;;18.77;9.00;;;6.10;99.90;;;;;;5035199;28;20450;-75
2022/11/27 08:50:41;;;;;;;17.52;9.05;;;6.00;99.90;;;;;;5033072;28;20068;-74
2022/11/27 08:53:07;;;;;;;13.85;8.05;;;6.10;99.90;;;;;;5015291;28;20049;-75
2022/11/27 08:55:32;;;;;;;19.50;8.75;;;6.00;99.90;;;;;;5015635;28;20474;-75
2022/11/27 08:57:58;;;;;;;19.42;9.00;;;6.40;99.90;;;;;;4997899;28;20103;-76
2022/11/27 09:00:23;;;;;;;19.08;8.90;;;6.00;99.90;;;;;;5015909;28;20348;-75
2022/11/27 09:02:49;;;;;;;14.25;8.75;;;6.10;99.90;;;;;;5015472;28;20095;-75
2022/11/27 09:05:15;;;;;;;16.00;8.00;;;6.10;99.90;;;;;;5015528;28;20042;-76
2022/11/27 09:07:40;;;;;;;16.90;9.02;;;6.20;99.90;;;;;;5015128;28;20056;-75
2022/11/27 09:10:07;;;;;;;13.55;8.13;;;6.40;99.90;;;;;;5015512;28;20396;-75
2022/11/27 09:12:33;;;;;;;12.60;7.88;;;6.10;99.90;;;;;;5021082;28;20351;-75
2022/11/27 09:14:58;;;;;;;14.20;7.88;;;6.10;99.90;;;;;;5017531;28;20088;-74
2022/11/27 09:17:24;;;;;;;14.25;8.25;;;6.10;99.90;;;;;;5035503;28;20045;-74
2022/11/27 09:19:50;;;;;;;14.43;8.23;;;6.10;99.90;;;;;;5034984;28;20124;-74
2022/11/27 09:22:15;;;;;;;14.98;8.85;;;6.10;99.90;;;;;;5035063;28;20068;-75
2022/11/27 09:24:41;;;;;;;16.77;8.88;;;6.10;99.90;;;;;;5035179;28;20052;-76
2022/11/27 09:27:07;;;;;;;19.95;9.20;;;6.20;99.90;;;;;;5034697;28;20045;-75
2022/11/27 09:29:35;;;;;;;18.13;8.75;;;6.20;99.90;;;;;;5034765;28;20171;-72
2022/11/27 09:32:01;;;;;;;15.65;9.05;;;6.20;99.90;;;;;;5034847;28;20053;-72
2022/11/27 09:34:27;;;;;;;21.52;9.35;;;6.20;99.90;;;;;;5035162;28;20038;-72
2022/11/27 09:36:52;;;;;;;17.90;10.23;;;6.20;99.90;;;;;;5035087;28;20057;-75
2022/11/27 09:39:21;;;;;;;18.50;9.85;;;6.20;99.90;;;;;;5034969;28;20125;-73
2022/11/27 09:41:56;;;;;;;17.02;9.88;;;6.20;99.90;;;;;;5015660;28;20045;-73
2022/11/27 09:44:44;;;;;;;18.20;9.35;;;6.50;99.90;;;;;;5015281;28;20060;-73
2022/11/27 09:47:34;;;;;;;16.70;8.95;;;6.10;99.90;;;;;;5015013;28;20042;-73
2022/11/27 09:50:05;;;;;;;16.27;9.95;;;6.20;99.90;;;;;;5015846;28;20046;-71
2022/11/27 09:52:39;;;;;;;15.82;9.88;;;6.20;99.90;;;;;;5008293;28;20493;-72
2022/11/27 09:55:41;;;;;;;20.55;9.77;;;6.60;99.90;;;;;;4997490;28;20486;-73
2022/11/27 09:58:21;;;;;;;19.15;8.85;;;6.20;99.90;;;;;;5011085;28;20125;-73
2022/11/27 10:00:47;;;;;;;17.52;9.45;;;6.20;99.90;;;;;;5015666;28;20053;-72
2022/11/27 10:03:20;;;;;;;19.20;9.52;;;6.20;99.90;;;;;;5014918;28;20370;-73
2022/11/27 10:05:46;;;;;;;;;;;6.20;99.90;;;;;;5014717;28;20069;-72
2022/11/27 10:08:21;;;;;;;19.08;9.10;;;6.20;99.90;;;;;;5014168;28;19921;-71
2022/11/27 10:10:58;;;;;;;16.58;9.63;;;6.10;99.90;;;;;;5014810;28;20052;-69
2022/11/27 10:14:04;;;;;;;16.92;10.07;;;6.10;99.90;;;;;;5016807;28;20458;-70
2022/11/27 10:16:29;;;;;;;17.48;11.00;;;6.10;99.90;;;;;;4993617;28;20363;-72
2022/11/27 10:19:21;;;;;;;20.30;11.05;;;6.10;99.90;;;;;;5011226;28;20042;-72
2022/11/27 10:22:11;;;;;;;19.48;10.55;;;6.10;99.90;;;;;;5013582;28;20426;-72
2022/11/27 10:24:44;;;;;;;19.00;11.32;;;6.10;99.90;;;;;;5015877;28;20060;-74
2022/11/27 10:28:00;;;;;;;21.25;10.55;;;6.20;99.90;;;;;;4980123;28;20133;-74
2022/11/27 10:30:29;;;;;;;18.33;10.20;;;6.20;99.90;;;;;;4951453;28;20357;-74
2022/11/27 10:32:58;;;;;;;19.77;10.52;;;6.10;99.90;;;;;;4954020;29;20444;-71
2022/11/27 10:35:27;;;;;;;18.98;10.98;;;6.10;99.90;;;;;;4981176;28;20431;-74
2022/11/27 10:38:05;;;;;;;25.20;10.75;;;6.10;99.90;;;;;;5006980;28;20052;-74
2022/11/27 10:40:44;;;;;;;23.10;11.25;;;6.10;99.90;;;;;;4998264;28;20046;-71
2022/11/27 10:43:18;;;;;;;18.30;10.18;;;6.10;99.90;;;;;;4998252;28;20089;-72
2022/11/27 10:45:47;;;;;;;20.20;11.32;;;6.20;99.90;;;;;;4999639;28;20122;-71
2022/11/27 10:48:13;;;;;;;23.33;11.10;;;6.10;99.90;;;;;;5011645;28;20042;-72
2022/11/27 10:50:40;;;;;;;22.58;11.55;;;6.10;99.90;;;;;;5017123;28;20038;-73
2022/11/27 10:53:09;;;;;;;22.73;12.15;;;6.20;99.90;;;;;;5016967;28;20054;-72
2022/11/27 10:56:10;;;;;;;24.98;11.88;;;6.10;99.90;;;;;;5015946;28;20046;-72
2022/11/27 10:58:41;;;;;;;21.90;10.18;;;6.20;99.90;;;;;;5016976;28;20454;-72
2022/11/27 11:01:08;;;;;;;21.92;11.23;;;6.20;99.90;;;;;;5017400;28;20108;-72
2022/11/27 11:03:34;;;;;;;21.33;11.13;;;6.20;99.90;;;;;;5013117;28;20057;-72
2022/11/27 11:06:04;;;;;;;18.75;10.27;;;6.10;99.90;;;;;;5017461;28;20053;-72
2022/11/27 11:08:31;;;;;;;18.20;11.18;;;6.10;99.90;;;;;;5017086;28;20098;-73
2022/11/27 11:11:00;;;;;;;19.40;11.10;;;6.20;99.90;;;;;;5003698;28;20097;-75
2022/11/27 11:13:30;;;;;;;24.95;11.73;;;6.20;99.90;;;;;;4980336;28;20049;-72
2022/11/27 11:16:04;;;;;;;19.75;11.32;;;6.20;99.90;;;;;;4997151;28;20045;-72
2022/11/27 11:18:41;;;;;;;17.73;10.60;;;6.30;99.90;;;;;;4984279;28;20073;-72
2022/11/27 11:21:25;;;;;;;23.33;11.93;;;6.20;99.90;;;;;;5014522;28;20058;-72
2022/11/27 11:24:03;;;;;;;20.90;11.65;;;6.20;99.90;;;;;;5016643;28;20046;-72
2022/11/27 11:26:39;;;;;;;25.65;12.13;;;6.20;99.90;;;;;;5016767;28;20045;-73
2022/11/27 11:29:18;;;;;;;20.13;11.82;;;6.30;99.90;;;;;;5000697;28;20060;-73
2022/11/27 11:31:44;;;;;;;22.23;11.50;;;6.30;99.90;;;;;;5017026;28;20459;-73
2022/11/27 11:34:15;;;;;;;21.55;11.35;;;6.20;99.90;;;;;;5016697;28;20050;-72
2022/11/27 11:36:55;;;;;;;19.17;11.07;;;6.20;99.90;;;;;;5017708;28;20064;-73
2022/11/27 11:39:27;;;;;;;20.73;11.73;;;6.20;99.90;;;;;;5016749;28;20120;-74
2022/11/27 11:41:52;;;;;;;22.20;11.98;;;6.20;99.90;;;;;;5017007;28;20060;-73
2022/11/27 11:44:28;;;;;;;22.75;12.70;;;6.20;99.90;;;;;;5016995;28;20145;-73
2022/11/27 11:46:54;;;;;;;28.17;13.95;;;6.30;99.90;;;;;;5010854;28;20061;-73
2022/11/27 11:49:25;;;;;;;22.10;12.80;;;6.30;99.90;;;;;;5016481;28;20101;-73
2022/11/27 11:52:25;;;;;;;20.80;11.80;;;6.30;99.90;;;;;;5016205;28;20052;-74
2022/11/27 11:55:20;;;;;;;21.27;11.30;;;6.30;99.90;;;;;;5005433;28;20042;-72
2022/11/27 11:58:01;;;;;;;20.80;10.73;;;6.30;99.90;;;;;;4953274;28;20054;-72
2022/11/27 12:00:45;;;;;;;22.00;12.00;;;6.30;99.90;;;;;;5010822;28;20453;-75
2022/11/27 12:03:31;;;;;;;17.17;10.60;;;6.30;99.90;;;;;;5016773;28;20056;-75
2022/11/27 12:06:02;;;;;;;21.50;11.18;;;6.40;99.90;;;;;;5016893;28;20053;-75
2022/11/27 12:08:43;;;;;;;20.13;11.38;;;6.40;99.90;;;;;;5016938;28;20350;-75
2022/11/27 12:11:15;;;;;;;20.20;11.80;;;6.40;99.90;;;;;;4998880;28;20409;-75
2022/11/27 12:14:10;;;;;;;16.25;11.20;;;6.50;99.90;;;;;;4998976;28;20470;-76
2022/11/27 12:17:14;;;;;;;18.08;10.98;;;6.50;99.90;;;;;;5016249;28;20049;-74
2022/11/27 12:19:48;;;;;;;20.13;11.45;;;6.50;99.90;;;;;;5016154;28;20046;-75
2022/11/27 12:22:43;;;;;;;22.08;14.27;;;6.50;99.90;;;;;;4998702;28;20124;-75
2022/11/27 12:25:24;;;;;;;20.80;11.82;;;6.50;99.90;;;;;;5016132;28;20041;-75
2022/11/27 12:28:05;;;;;;;16.60;10.80;;;6.50;99.90;;;;;;4998774;28;20056;-75
2022/11/27 12:30:53;;;;;;;17.15;11.60;;;6.60;99.90;;;;;;5015925;28;20049;-75
2022/11/27 12:33:37;;;;;;;19.60;12.13;;;6.50;99.90;;;;;;5015998;28;20060;-75
2022/11/27 12:36:11;;;;;;;19.38;11.95;;;6.50;99.90;;;;;;5015873;28;20045;-75
2022/11/27 12:39:14;;;;;;;17.60;11.88;;;7.00;99.90;;;;;;5015012;28;20132;-74
2022/11/27 12:41:59;;;;;;;20.85;12.95;;;6.50;99.90;;;;;;5015876;28;20049;-75
2022/11/27 12:44:39;;;;;;;19.75;12.15;;;6.60;99.90;;;;;;5015849;28;20038;-75
2022/11/27 12:47:15;;;;;;;18.42;12.18;;;6.60;99.90;;;;;;5015323;28;20041;-75
2022/11/27 12:49:49;;;;;;;21.98;11.73;;;6.60;99.90;;;;;;5015076;28;20049;-75
2022/11/27 12:52:50;;;;;;;18.83;11.82;;;6.60;99.90;;;;;;5015626;28;20048;-74
2022/11/27 12:55:22;;;;;;;16.60;10.18;;;6.60;99.90;;;;;;4963973;28;20386;-75
2022/11/27 12:57:55;;;;;;;21.27;11.27;;;6.60;99.90;;;;;;5015331;28;20477;-74
2022/11/27 13:00:25;;;;;;;;;;;6.70;99.90;;;;;;5015248;28;20470;-75